Time;durP1;ratioP1;P1;durP2;ratioP2;P2;SDS_P1;SDS_P2;PMS_P1;PMS_P2;Temp;Humidity;BMP_temperature;BMP_pressure;BME280_temperature;BME280_humidity;BME280_pressure;Samples;Min_cycle;Max_cycle;Signal;HPM_P1;HPM_P2
2024/04/08 00:01:55;;;;;;;;;;;;;;;21.69;40.68;95331.97;11245976;26;2914;-61
2024/04/08 00:06:56;;;;;;;;;;;;;;;21.68;40.52;95327.75;11239623;26;3199;-62
2024/04/08 00:11:56;;;;;;;;;;;;;;;21.69;40.64;95324.06;11241951;26;2991;-62
2024/04/08 00:16:56;;;;;;;;;;;;;;;21.69;40.41;95318.00;11241721;26;2963;-62
2024/04/08 00:21:56;;;;;;;;;;;;;;;21.69;40.40;95328.53;11236758;26;3567;-61
2024/04/08 00:26:57;;;;;;;;;;;;;;;21.69;40.56;95328.53;11241019;26;2822;-62
2024/04/08 00:31:57;;;;;;;;;;;;;;;21.68;40.38;95324.34;11236060;26;3110;-62
2024/04/08 00:36:58;;;;;;;;;;;;;;;21.68;40.43;95316.41;11232131;26;3078;-62
2024/04/08 00:41:59;;;;;;;;;;;;;;;21.67;40.45;95307.75;11232628;26;3024;-61
2024/04/08 00:47:00;;;;;;;;;;;;;;;21.67;40.37;95305.09;11205824;26;3331;-62
2024/04/08 00:52:00;;;;;;;;;;;;;;;21.68;40.30;95300.59;11239919;26;3104;-62
2024/04/08 00:57:02;;;;;;;;;;;;;;;21.68;40.24;95300.59;11258971;26;3029;-62
2024/04/08 01:02:04;;;;;;;;;;;;;;;21.68;40.52;95300.59;11235034;26;2967;-62
2024/04/08 01:07:04;;;;;;;;;;;;;;;21.68;40.23;95290.03;11233265;26;2937;-62
2024/04/08 01:12:05;;;;;;;;;;;;;;;21.67;40.28;95293.75;11231425;26;3029;-62
2024/04/08 01:17:05;;;;;;;;;;;;;;;21.63;40.54;95277.75;11235390;26;3195;-62
2024/04/08 01:22:06;;;;;;;;;;;;;;;21.66;40.22;95282.44;11237072;26;3092;-62
2024/04/08 01:27:08;;;;;;;;;;;;;;;21.66;40.27;95271.88;11232333;26;3035;-61
2024/04/08 01:32:09;;;;;;;;;;;;;;;21.67;40.25;95272.66;11234797;26;2585;-61
2024/04/08 01:37:09;;;;;;;;;;;;;;;21.66;40.46;95261.31;11209038;26;3146;-61
2024/04/08 01:42:09;;;;;;;;;;;;;;;21.64;40.18;95260.84;11246892;26;2927;-62
2024/04/08 01:47:09;;;;;;;;;;;;;;;21.66;40.31;95256.03;11240798;26;3018;-64
2024/04/08 01:52:10;;;;;;;;;;;;;;;21.66;40.13;95247.34;11235090;26;2809;-62
2024/04/08 01:57:10;;;;;;;;;;;;;;;21.65;40.49;95243.94;11248551;26;3104;-62
2024/04/08 02:02:10;;;;;;;;;;;;;;;21.65;40.53;95238.66;11228798;26;3103;-62
2024/04/08 02:07:11;;;;;;;;;;;;;;;21.66;40.16;95239.44;11240922;26;3232;-62
2024/04/08 02:12:11;;;;;;;;;;;;;;;21.66;40.09;95236.78;11234787;26;3124;-62
2024/04/08 02:17:11;;;;;;;;;;;;;;;21.66;40.08;95231.53;11242441;26;3076;-62
2024/04/08 02:22:11;;;;;;;;;;;;;;;21.64;40.31;95221.28;11243525;26;3187;-61
2024/04/08 02:27:12;;;;;;;;;;;;;;;21.65;40.42;95222.84;11237678;26;3350;-62
2024/04/08 02:32:12;;;;;;;;;;;;;;;21.64;40.23;95225.75;11243991;26;3204;-62
2024/04/08 02:37:12;;;;;;;;;;;;;;;21.65;39.94;95224.69;11241044;26;3065;-62
2024/04/08 02:42:13;;;;;;;;;;;;;;;21.64;40.32;95213.34;11209851;26;3050;-62
2024/04/08 02:47:13;;;;;;;;;;;;;;;21.63;39.89;95209.16;11237771;26;3200;-62
2024/04/08 02:52:13;;;;;;;;;;;;;;;21.65;40.37;95214.16;11242798;26;3104;-61
2024/04/08 02:57:13;;;;;;;;;;;;;;;21.64;40.09;95204.66;11234759;26;3081;-61
2024/04/08 03:02:14;;;;;;;;;;;;;;;21.65;40.31;95208.88;11203969;26;3106;-62
2024/04/08 03:07:14;;;;;;;;;;;;;;;21.63;40.01;95209.16;11242883;26;3118;-61
2024/04/08 03:12:14;;;;;;;;;;;;;;;21.63;40.20;95209.16;11236262;26;2990;-62
2024/04/08 03:17:15;;;;;;;;;;;;;;;21.62;40.20;95210.22;11242200;26;2845;-62
2024/04/08 03:22:15;;;;;;;;;;;;;;;21.63;40.07;95206.53;11232092;26;3121;-61
2024/04/08 03:27:15;;;;;;;;;;;;;;;21.64;40.05;95209.94;11253925;26;3061;-62
2024/04/08 03:32:16;;;;;;;;;;;;;;;21.63;40.05;95208.38;11247830;26;3088;-61
2024/04/08 03:37:16;;;;;;;;;;;;;;;21.63;39.94;95213.66;11235318;26;3269;-62
2024/04/08 03:42:17;;;;;;;;;;;;;;;21.63;40.50;95208.38;11239742;26;3104;-62
2024/04/08 03:47:17;;;;;;;;;;;;;;;21.62;40.45;95212.88;11232615;26;3059;-63
2024/04/08 03:52:17;;;;;;;;;;;;;;;21.63;40.47;95208.38;11241369;26;2830;-61
2024/04/08 03:57:17;;;;;;;;;;;;;;;21.62;40.17;95212.06;11240480;26;3036;-62
2024/04/08 04:02:17;;;;;;;;;;;;;;;21.63;40.13;95214.44;11232894;26;3180;-62
2024/04/08 04:07:18;;;;;;;;;;;;;;;21.63;40.54;95209.16;11243269;26;3185;-62
2024/04/08 04:12:18;;;;;;;;;;;;;;;21.62;40.12;95212.06;11238276;26;3111;-62
2024/04/08 04:17:21;;;;;;;;;;;;;;;21.63;40.50;95221.56;11230047;26;3082;-62
2024/04/08 04:22:21;;;;;;;;;;;;;;;21.62;40.49;95243.72;11242434;26;3091;-62
2024/04/08 04:27:21;;;;;;;;;;;;;;;21.62;40.30;95264.81;11236443;26;3104;-62
2024/04/08 04:32:21;;;;;;;;;;;;;;;21.60;40.34;95277.53;11215305;26;2991;-62
2024/04/08 04:37:22;;;;;;;;;;;;;;;21.60;40.48;95274.88;11242649;26;2992;-62
2024/04/08 04:42:22;;;;;;;;;;;;;;;21.60;39.95;95272.25;11240861;26;3100;-62
2024/04/08 04:47:22;;;;;;;;;;;;;;;21.59;40.27;95278.63;11232900;26;3221;-62
2024/04/08 04:52:23;;;;;;;;;;;;;;;21.59;40.05;95283.88;11246331;26;3143;-62
2024/04/08 04:57:23;;;;;;;;;;;;;;;21.59;40.41;95287.31;11206627;26;3114;-62
2024/04/08 05:02:23;;;;;;;;;;;;;;;21.59;40.03;95287.31;11237220;26;3003;-62
2024/04/08 05:07:23;;;;;;;;;;;;;;;21.59;40.45;95287.31;11241149;26;3212;-62
2024/04/08 05:12:24;;;;;;;;;;;;;;;21.59;40.14;95292.59;11228952;26;3073;-62
2024/04/08 05:17:24;;;;;;;;;;;;;;;21.59;40.50;95299.72;11232943;26;3209;-62
2024/04/08 05:22:28;;;;;;;;;;;;;;;21.59;40.51;95297.06;11206596;26;3076;-62
2024/04/08 05:27:28;;;;;;;;;;;;;;;21.59;40.25;95311.06;11252961;26;3164;-62
2024/04/08 05:32:28;;;;;;;;;;;;;;;21.59;40.43;95305.78;11239239;26;2959;-62
2024/04/08 05:37:29;;;;;;;;;;;;;;;21.60;40.02;95307.31;11233511;26;3216;-62
2024/04/08 05:42:29;;;;;;;;;;;;;;;21.61;39.81;95316.03;11227036;26;3092;-62
2024/04/08 05:47:29;;;;;;;;;;;;;;;21.62;39.87;95312.31;11228411;26;3083;-62
2024/04/08 05:52:30;;;;;;;;;;;;;;;21.62;39.82;95301.75;11257000;26;3201;-62
2024/04/08 05:57:31;;;;;;;;;;;;;;;21.63;40.03;95304.13;11234020;26;3183;-61
2024/04/08 06:02:31;;;;;;;;;;;;;;;21.64;39.89;95313.59;11206280;26;3221;-61
2024/04/08 06:07:31;;;;;;;;;;;;;;;21.66;40.09;95323.84;11229316;26;2838;-61
2024/04/08 06:12:31;;;;;;;;;;;;;;;21.66;40.42;95331.75;11261548;26;2989;-62
2024/04/08 06:17:32;;;;;;;;;;;;;;;21.67;40.45;95336.75;11200458;26;3205;-62
2024/04/08 06:22:35;;;;;;;;;;;;;;;21.68;40.34;95334.88;11203813;26;2990;-64
2024/04/08 06:27:35;;;;;;;;;;;;;;;21.70;40.53;95338.81;11228523;26;2952;-64
2024/04/08 06:32:36;;;;;;;;;;;;;;;21.71;40.56;95336.94;11240569;26;3981;-67
2024/04/08 06:37:36;;;;;;;;;;;;;;;21.74;40.77;95342.44;11197181;26;3057;-64
2024/04/08 06:42:36;;;;;;;;;;;;;;;21.76;41.10;95350.84;11209412;26;3057;-65
2024/04/08 06:47:36;;;;;;;;;;;;;;;21.76;40.90;95350.84;11231696;26;3064;-66
2024/04/08 06:52:37;;;;;;;;;;;;;;;21.78;40.94;95348.69;11227327;26;3195;-67
2024/04/08 06:57:37;;;;;;;;;;;;;;;21.80;41.12;95343.13;11229698;26;2993;-66
2024/04/08 07:02:37;;;;;;;;;;;;;;;21.81;41.47;95347.31;11230292;26;3091;-65
2024/04/08 07:07:37;;;;;;;;;;;;;;;21.82;41.25;95338.38;11207037;26;2951;-67
2024/04/08 07:12:38;;;;;;;;;;;;;;;21.84;41.55;95336.25;11232838;26;3115;-69
2024/04/08 07:17:38;;;;;;;;;;;;;;;21.84;41.52;95337.00;11229182;26;3191;-69
2024/04/08 07:22:38;;;;;;;;;;;;;;;21.86;41.44;95334.09;11230016;26;3302;-67
2024/04/08 07:27:38;;;;;;;;;;;;;;;21.85;41.47;95338.56;11228166;26;3202;-70
2024/04/08 07:32:39;;;;;;;;;;;;;;;21.86;41.84;95342.75;11251231;26;3113;-69
2024/04/08 07:37:39;;;;;;;;;;;;;;;21.87;41.68;95338.28;11227425;26;3178;-67
2024/04/08 07:42:41;;;;;;;;;;;;;;;21.88;41.92;95347.78;11226917;26;3232;-68
2024/04/08 07:47:43;;;;;;;;;;;;;;;21.89;41.65;95338.78;11223072;26;3096;-66
2024/04/08 07:52:44;;;;;;;;;;;;;;;21.89;41.74;95344.03;11227772;26;3135;-67
2024/04/08 07:57:46;;;;;;;;;;;;;;;21.89;41.93;95333.50;11228378;26;2831;-67
2024/04/08 08:02:46;;;;;;;;;;;;;;;21.90;41.79;95342.19;11220142;26;3010;-67
2024/04/08 08:07:46;;;;;;;;;;;;;;;21.92;41.52;95340.06;11228013;26;3466;-69
2024/04/08 08:12:46;;;;;;;;;;;;;;;21.91;41.61;95338.50;11228221;26;3190;-67
2024/04/08 08:17:49;;;;;;;;;;;;;;;21.91;41.68;95349.81;11227965;26;3213;-66
2024/04/08 08:22:56;;;;;;;;;;;;;;;21.91;41.68;95347.19;11190607;26;3240;-68
2024/04/08 08:27:56;;;;;;;;;;;;;;;21.92;41.79;95343.47;11225772;26;3208;-67
2024/04/08 08:32:56;;;;;;;;;;;;;;;21.92;41.86;95348.75;11223988;26;3143;-65
2024/04/08 08:37:57;;;;;;;;;;;;;;;21.93;41.98;95342.38;11201486;26;3110;-64
2024/04/08 08:42:57;;;;;;;;;;;;;;;21.93;41.85;95349.53;11233648;26;2817;-65
2024/04/08 08:47:58;;;;;;;;;;;;;;;21.95;42.21;95350.03;11236683;26;3216;-67
2024/04/08 08:52:58;;;;;;;;;;;;;;;21.94;42.18;95351.88;11167660;26;3033;-65
2024/04/08 08:57:59;;;;;;;;;;;;;;;21.95;42.05;95342.13;11225167;26;3208;-69
2024/04/08 09:02:59;;;;;;;;;;;;;;;21.97;42.05;95339.97;11223384;26;3198;-67
2024/04/08 09:07:59;;;;;;;;;;;;;;;21.97;42.34;95346.00;11257480;26;2910;-67
2024/04/08 09:12:59;;;;;;;;;;;;;;;21.99;42.09;95348.38;11228392;26;3215;-71
2024/04/08 09:18:03;;;;;;;;;;;;;;;21.99;42.40;95338.59;11226024;26;2996;-67
2024/04/08 09:23:04;;;;;;;;;;;;;;;22.00;42.23;95344.66;11219530;26;3188;-67
2024/04/08 09:28:07;;;;;;;;;;;;;;;22.00;42.04;95334.88;11229259;26;3079;-67
2024/04/08 09:33:11;;;;;;;;;;;;;;;21.99;42.06;95330.66;11230299;26;3088;-67
2024/04/08 09:38:11;;;;;;;;;;;;;;;22.00;41.94;95319.06;11225080;26;3209;-65
2024/04/08 09:43:12;;;;;;;;;;;;;;;22.02;42.01;95319.53;11227157;26;3083;-66
2024/04/08 09:48:12;;;;;;;;;;;;;;;22.02;42.18;95308.97;11222576;26;3082;-66
2024/04/08 09:53:12;;;;;;;;;;;;;;;22.03;41.78;95297.34;11231674;26;2820;-63
2024/04/08 09:58:13;;;;;;;;;;;;;;;22.04;41.79;95293.63;11233489;26;3229;-65
2024/04/08 10:03:14;;;;;;;;;;;;;;;22.06;42.15;95291.47;11196605;26;3142;-66
2024/04/08 10:08:15;;;;;;;;;;;;;;;22.08;41.96;95275.34;11237092;26;3104;-64
2024/04/08 10:13:16;;;;;;;;;;;;;;;22.11;42.68;95275.56;11232345;26;2858;-65
2024/04/08 10:18:18;;;;;;;;;;;;;;;22.16;42.41;95267.53;11231393;26;2974;-63
2024/04/08 10:23:19;;;;;;;;;;;;;;;22.18;42.34;95254.81;11233175;26;3130;-64
2024/04/08 10:28:19;;;;;;;;;;;;;;;22.19;41.73;95245.03;11232693;26;3036;-64
2024/04/08 10:33:22;;;;;;;;;;;;;;;22.20;41.26;95234.19;11237748;26;3005;-64
2024/04/08 10:38:22;;;;;;;;;;;;;;;22.21;41.13;95233.13;11230372;26;3107;-62
2024/04/08 10:43:23;;;;;;;;;;;;;;;22.23;40.85;95227.53;11231579;26;2809;-63
2024/04/08 10:48:23;;;;;;;;;;;;;;;22.22;40.21;95221.47;11225984;26;3198;-64
2024/04/08 10:53:26;;;;;;;;;;;;;;;22.20;39.54;95220.19;11193445;26;2905;-64
2024/04/08 10:58:27;;;;;;;;;;;;;;;22.16;39.77;95224.50;11240130;26;3136;-63
2024/04/08 11:03:27;;;;;;;;;;;;;;;22.14;39.67;95219.53;11234999;26;3288;-64
2024/04/08 11:08:28;;;;;;;;;;;;;;;22.13;39.84;95207.41;11233083;26;3220;-63
2024/04/08 11:13:28;;;;;;;;;;;;;;;22.15;39.11;95205.25;11226654;26;3123;-65
2024/04/08 11:18:28;;;;;;;;;;;;;;;22.14;38.64;95202.91;11229792;26;3020;-65
2024/04/08 11:23:28;;;;;;;;;;;;;;;22.14;38.44;95193.13;11259715;26;3247;-65
2024/04/08 11:28:29;;;;;;;;;;;;;;;22.14;38.26;95187.84;11232516;26;3191;-62
2024/04/08 11:33:29;;;;;;;;;;;;;;;22.18;38.40;95180.88;11235160;26;3052;-67
2024/04/08 11:38:30;;;;;;;;;;;;;;;22.19;39.08;95179.03;11232670;26;2888;-67
2024/04/08 11:43:31;;;;;;;;;;;;;;;22.20;39.25;95170.81;11233736;26;3208;-68
2024/04/08 11:48:37;;;;;;;;;;;;;;;22.22;39.47;95168.66;11207714;26;3078;-67
2024/04/08 11:53:38;;;;;;;;;;;;;;;22.25;39.93;95162.78;11235499;26;3295;-68
2024/04/08 11:58:39;;;;;;;;;;;;;;;22.27;39.89;95154.56;11228877;26;3122;-67
2024/04/08 12:03:39;;;;;;;;;;;;;;;22.29;40.09;95153.19;11236351;26;2993;-67
2024/04/08 12:08:39;;;;;;;;;;;;;;;22.30;40.75;95154.75;11234725;26;3105;-67
2024/04/08 12:13:39;;;;;;;;;;;;;;;22.32;40.84;95149.94;11229138;26;2995;-66
2024/04/08 12:18:40;;;;;;;;;;;;;;;22.34;41.04;95133.81;11227138;26;3084;-67
2024/04/08 12:23:40;;;;;;;;;;;;;;;22.36;41.07;95127.16;11228020;26;3107;-67
2024/04/08 12:28:40;;;;;;;;;;;;;;;22.39;41.22;95123.13;11228921;26;3105;-67
2024/04/08 12:33:40;;;;;;;;;;;;;;;22.40;41.29;95119.44;11223099;26;3307;-67
2024/04/08 12:38:41;;;;;;;;;;;;;;;22.41;41.69;95123.63;11236081;26;3043;-67
2024/04/08 12:43:44;;;;;;;;;;;;;;;22.42;41.63;95115.38;11231441;26;3140;-67
2024/04/08 12:48:44;;;;;;;;;;;;;;;22.44;41.82;95118.50;11228440;26;3200;-67
2024/04/08 12:53:44;;;;;;;;;;;;;;;22.45;41.75;95100.81;11224751;26;2908;-67
2024/04/08 12:58:45;;;;;;;;;;;;;;;22.46;42.19;95110.31;11225656;26;3101;-68
2024/04/08 13:03:45;;;;;;;;;;;;;;;22.47;42.03;95102.06;11219259;26;2936;-68
2024/04/08 13:08:45;;;;;;;;;;;;;;;22.49;42.33;95094.63;11237773;26;2981;-64
2024/04/08 13:13:45;;;;;;;;;;;;;;;22.48;41.77;95093.06;11231103;26;3226;-65
2024/04/08 13:18:46;;;;;;;;;;;;;;;22.47;41.83;95080.94;11235284;26;3189;-64
2024/04/08 13:23:46;;;;;;;;;;;;;;;22.46;41.62;95087.28;11201516;26;3643;-64
2024/04/08 13:28:46;;;;;;;;;;;;;;;22.46;42.03;95075.97;11237121;26;3182;-64
2024/04/08 13:33:47;;;;;;;;;;;;;;;22.46;42.05;95070.69;11237125;26;3089;-63
2024/04/08 13:38:47;;;;;;;;;;;;;;;22.46;42.04;95078.63;11203736;26;3133;-64
2024/04/08 13:43:47;;;;;;;;;;;;;;;22.47;42.06;95069.59;11233354;26;3078;-63
2024/04/08 13:48:48;;;;;;;;;;;;;;;22.48;41.79;95069.28;11236250;26;2833;-64
2024/04/08 13:53:48;;;;;;;;;;;;;;;22.48;41.82;95069.28;11244849;26;3114;-65
2024/04/08 13:58:49;;;;;;;;;;;;;;;22.47;41.91;95065.09;11231161;26;3134;-64
2024/04/08 14:03:52;;;;;;;;;;;;;;;22.48;42.17;95058.72;11233852;26;3543;-64
2024/04/08 14:08:53;;;;;;;;;;;;;;;22.48;42.22;95055.31;11240421;26;3087;-64
2024/04/08 14:13:55;;;;;;;;;;;;;;;22.48;42.30;95052.69;11230777;26;3091;-64
2024/04/08 14:18:56;;;;;;;;;;;;;;;22.47;42.02;95053.75;11235126;26;2931;-64
2024/04/08 14:23:56;;;;;;;;;;;;;;;22.48;42.16;95053.44;11230416;26;3110;-62
2024/04/08 14:28:56;;;;;;;;;;;;;;;22.49;42.15;95056.88;11236222;26;3097;-63
2024/04/08 14:33:57;;;;;;;;;;;;;;;22.50;42.43;95042.59;11232725;26;3230;-66
2024/04/08 14:38:57;;;;;;;;;;;;;;;22.50;42.66;95048.63;11202559;26;3013;-66
2024/04/08 14:43:58;;;;;;;;;;;;;;;22.53;42.49;95041.97;11204562;26;3113;-65
2024/04/08 14:48:58;;;;;;;;;;;;;;;22.53;42.61;95029.56;11239827;26;3444;-67
2024/04/08 14:53:58;;;;;;;;;;;;;;;22.55;42.95;95022.09;11224821;26;3094;-66
2024/04/08 14:58:59;;;;;;;;;;;;;;;22.57;43.03;95022.59;11235659;26;3116;-66
2024/04/08 15:03:59;;;;;;;;;;;;;;;22.58;43.33;95013.63;11231004;26;3100;-66
2024/04/08 15:08:59;;;;;;;;;;;;;;;22.58;43.62;95013.63;11240588;26;2842;-66
2024/04/08 15:14:00;;;;;;;;;;;;;;;22.60;43.58;95018.59;11254372;26;3145;-66
2024/04/08 15:19:00;;;;;;;;;;;;;;;22.60;43.56;95016.75;11233922;26;3112;-65
2024/04/08 15:24:01;;;;;;;;;;;;;;;22.61;43.62;95020.91;11232877;26;3244;-66
2024/04/08 15:29:01;;;;;;;;;;;;;;;22.61;43.72;95017.50;11255986;26;3141;-66
2024/04/08 15:34:02;;;;;;;;;;;;;;;22.60;42.78;95014.09;11229917;26;3195;-67
2024/04/08 15:39:02;;;;;;;;;;;;;;;22.60;40.84;95008.81;11229296;26;3415;-65
2024/04/08 15:44:03;;;;;;;;;;;;;;;22.58;40.13;95012.84;11209018;26;3080;-66
2024/04/08 15:49:03;;;;;;;;;;;;;;;22.55;40.67;95016.81;11240179;26;3055;-67
2024/04/08 15:54:06;;;;;;;;;;;;;;;22.53;40.90;95019.00;11241645;26;3192;-66
2024/04/08 15:59:06;;;;;;;;;;;;;;;22.53;40.92;95002.34;11237166;26;3120;-65
2024/04/08 16:04:07;;;;;;;;;;;;;;;22.52;41.23;95009.50;11212115;26;3199;-66
2024/04/08 16:09:08;;;;;;;;;;;;;;;22.52;40.98;95009.50;11242661;26;3094;-66
2024/04/08 16:14:09;;;;;;;;;;;;;;;22.51;40.94;95002.66;11232831;26;3120;-66
2024/04/08 16:19:09;;;;;;;;;;;;;;;22.51;41.32;95010.59;11242527;26;3034;-65
2024/04/08 16:24:10;;;;;;;;;;;;;;;22.52;41.19;95014.03;11238278;26;3390;-66
2024/04/08 16:29:12;;;;;;;;;;;;;;;22.51;41.21;95018.50;11233871;26;3001;-66
2024/04/08 16:34:12;;;;;;;;;;;;;;;22.51;41.12;95021.16;11235896;26;2969;-63
2024/04/08 16:39:14;;;;;;;;;;;;;;;22.50;41.38;95019.59;11212242;26;3224;-63
2024/04/08 16:44:14;;;;;;;;;;;;;;;22.50;41.53;95016.19;11230140;26;3119;-63
2024/04/08 16:49:18;;;;;;;;;;;;;;;22.50;41.53;95022.22;11206893;26;3046;-63
2024/04/08 16:54:18;;;;;;;;;;;;;;;22.49;41.38;95025.19;11205316;26;3086;-63
2024/04/08 16:59:19;;;;;;;;;;;;;;;22.48;41.32;95021.75;11232836;26;3182;-63
2024/04/08 17:04:19;;;;;;;;;;;;;;;22.48;41.28;95027.03;11228810;26;3093;-63
2024/04/08 17:09:24;;;;;;;;;;;;;;;22.48;41.42;95027.03;11234169;26;3623;-62
2024/04/08 17:14:24;;;;;;;;;;;;;;;22.48;41.48;95019.09;11208367;26;3154;-63
2024/04/08 17:19:26;;;;;;;;;;;;;;;22.49;41.67;95015.41;11232174;26;3211;-63
2024/04/08 17:24:26;;;;;;;;;;;;;;;22.50;41.37;95013.53;11223254;26;2957;-64
2024/04/08 17:29:26;;;;;;;;;;;;;;;22.49;41.47;95015.41;11226395;26;2977;-63
2024/04/08 17:34:27;;;;;;;;;;;;;;;22.50;41.67;95008.25;11165621;26;2954;-63
2024/04/08 17:39:31;;;;;;;;;;;;;;;22.50;41.77;94997.69;11238448;26;3000;-62
2024/04/08 17:44:31;;;;;;;;;;;;;;;22.51;41.96;94991.31;11229769;26;3231;-62
2024/04/08 17:49:31;;;;;;;;;;;;;;;22.50;41.90;94995.06;11226278;26;3358;-63
2024/04/08 17:54:32;;;;;;;;;;;;;;;22.52;42.56;94984.97;11204925;26;3048;-63
2024/04/08 17:59:32;;;;;;;;;;;;;;;22.53;42.75;94989.94;11226245;26;3100;-63
2024/04/08 18:04:32;;;;;;;;;;;;;;;22.54;42.72;94986.22;11187986;26;2969;-64
2024/04/08 18:09:32;;;;;;;;;;;;;;;22.56;43.00;94986.69;11225908;26;3038;-64
2024/04/08 18:14:33;;;;;;;;;;;;;;;22.57;43.13;94984.81;11231599;26;2947;-63
2024/04/08 18:19:34;;;;;;;;;;;;;;;22.58;43.24;94984.56;11231325;26;3114;-64
2024/04/08 18:24:35;;;;;;;;;;;;;;;22.59;43.45;94998.53;11234578;26;3006;-64
2024/04/08 18:29:35;;;;;;;;;;;;;;;22.61;43.59;94996.38;11232685;26;3072;-63
2024/04/08 18:34:35;;;;;;;;;;;;;;;22.65;43.84;95003.38;11238474;26;3394;-61
2024/04/08 18:39:36;;;;;;;;;;;;;;;22.73;43.61;95004.50;11204388;26;3120;-62
2024/04/08 18:44:37;;;;;;;;;;;;;;;22.77;43.21;95002.03;11227946;26;3008;-64
2024/04/08 18:49:37;;;;;;;;;;;;;;;22.81;43.54;95010.91;11235556;26;3004;-64
2024/04/08 18:54:42;;;;;;;;;;;;;;;22.86;43.49;95000.19;11238511;26;2909;-63
2024/04/08 18:59:43;;;;;;;;;;;;;;;22.87;43.17;94999.91;11234143;26;3086;-60
2024/04/08 19:04:43;;;;;;;;;;;;;;;22.89;43.05;95007.53;11229460;26;3158;-63
2024/04/08 19:09:43;;;;;;;;;;;;;;;22.90;43.04;94993.22;11228228;26;2990;-64
2024/04/08 19:14:44;;;;;;;;;;;;;;;22.91;43.14;95000.84;11224352;26;3001;-61
2024/04/08 19:19:44;;;;;;;;;;;;;;;22.93;43.09;94995.25;11226343;26;3193;-62
2024/04/08 19:24:44;;;;;;;;;;;;;;;22.94;43.09;94992.31;11231376;26;3174;-63
2024/04/08 19:29:45;;;;;;;;;;;;;;;22.97;43.09;94998.84;11232016;26;3110;-63
2024/04/08 19:34:48;;;;;;;;;;;;;;;22.98;43.25;94992.50;11230200;26;3166;-62
2024/04/08 19:39:48;;;;;;;;;;;;;;;23.00;43.41;94992.97;11229947;26;3115;-62
2024/04/08 19:44:52;;;;;;;;;;;;;;;22.98;43.48;94992.50;11225895;26;3178;-61
2024/04/08 19:49:53;;;;;;;;;;;;;;;22.96;43.66;94991.97;11229519;26;3100;-60
2024/04/08 19:54:53;;;;;;;;;;;;;;;22.93;43.55;94982.03;11226594;26;3210;-60
2024/04/08 19:59:56;;;;;;;;;;;;;;;22.90;43.76;94972.06;11233767;26;3095;-61
2024/04/08 20:04:56;;;;;;;;;;;;;;;22.87;43.86;94983.28;11200009;26;3702;-61
2024/04/08 20:09:56;;;;;;;;;;;;;;;22.85;43.74;94969.59;11224506;26;3110;-61
2024/04/08 20:14:58;;;;;;;;;;;;;;;22.82;43.65;94964.91;11227807;26;3125;-61
2024/04/08 20:19:59;;;;;;;;;;;;;;;22.81;43.88;94966.00;11215625;26;3102;-61
2024/04/08 20:24:59;;;;;;;;;;;;;;;22.79;44.00;94966.31;11223729;26;3338;-61
2024/04/08 20:30:00;;;;;;;;;;;;;;;22.78;44.04;94958.66;11225429;26;2925;-61
2024/04/08 20:35:00;;;;;;;;;;;;;;;22.76;44.04;94952.91;11195686;26;3108;-62
2024/04/08 20:40:03;;;;;;;;;;;;;;;22.74;43.78;94947.16;11198252;26;3211;-62
2024/04/08 20:45:04;;;;;;;;;;;;;;;22.73;43.99;94953.53;11234294;26;3089;-62
2024/04/08 20:50:04;;;;;;;;;;;;;;;22.71;43.89;94940.63;11230190;26;3163;-62
2024/04/08 20:55:04;;;;;;;;;;;;;;;22.71;44.03;94942.50;11233231;26;2919;-62
2024/04/08 21:00:06;;;;;;;;;;;;;;;22.68;43.75;94941.25;11231509;26;3111;-63
2024/04/08 21:05:06;;;;;;;;;;;;;;;22.67;43.80;94939.66;11229405;26;2875;-62
2024/04/08 21:10:07;;;;;;;;;;;;;;;22.66;43.89;94935.47;11236971;26;3120;-62
2024/04/08 21:15:08;;;;;;;;;;;;;;;22.65;43.74;94934.69;11210101;26;3024;-61
2024/04/08 21:20:09;;;;;;;;;;;;;;;22.63;43.69;94926.31;11227865;26;3056;-62
2024/04/08 21:25:09;;;;;;;;;;;;;;;22.63;43.76;94925.50;11236040;26;3235;-61
2024/04/08 21:30:10;;;;;;;;;;;;;;;22.62;43.53;94919.47;11234306;26;2526;-62
2024/04/08 21:35:10;;;;;;;;;;;;;;;22.62;43.60;94922.13;11233494;26;3138;-63
2024/04/08 21:40:10;;;;;;;;;;;;;;;22.61;43.45;94914.47;11225956;26;2923;-62
2024/04/08 21:45:11;;;;;;;;;;;;;;;22.61;43.43;94911.84;11227774;26;3003;-61
2024/04/08 21:50:11;;;;;;;;;;;;;;;22.59;43.26;94906.88;11227159;26;3119;-61
2024/04/08 21:55:11;;;;;;;;;;;;;;;22.60;43.26;94897.09;11241243;26;3206;-62
2024/04/08 22:00:13;;;;;;;;;;;;;;;22.58;43.51;94897.41;11236049;26;3184;-61
2024/04/08 22:05:13;;;;;;;;;;;;;;;22.58;43.15;94889.47;11239780;26;3111;-62
2024/04/08 22:10:14;;;;;;;;;;;;;;;22.57;43.09;94890.50;11240152;26;3194;-59
2024/04/08 22:15:15;;;;;;;;;;;;;;;22.57;43.10;94887.09;11242746;26;3015;-62
2024/04/08 22:20:16;;;;;;;;;;;;;;;22.56;43.25;94883.69;11239749;26;3171;-62
2024/04/08 22:25:17;;;;;;;;;;;;;;;22.57;43.32;94879.94;11245169;26;2984;-62
2024/04/08 22:30:17;;;;;;;;;;;;;;;22.55;43.04;94874.19;11238771;26;3095;-62
2024/04/08 22:35:17;;;;;;;;;;;;;;;22.56;43.08;94872.34;11263401;26;3131;-61
2024/04/08 22:40:17;;;;;;;;;;;;;;;22.56;42.93;94875.75;11234171;26;3162;-62
2024/04/08 22:45:18;;;;;;;;;;;;;;;22.56;42.79;94872.34;11236259;26;3095;-62
2024/04/08 22:50:20;;;;;;;;;;;;;;;22.54;42.96;94870.00;11234359;26;2987;-62
2024/04/08 22:55:20;;;;;;;;;;;;;;;22.54;43.05;94866.59;11242851;26;3190;-60
2024/04/08 23:00:21;;;;;;;;;;;;;;;22.55;42.91;94866.28;11243632;26;3095;-60
2024/04/08 23:05:21;;;;;;;;;;;;;;;22.54;42.91;94856.81;11247616;26;3202;-60
2024/04/08 23:10:21;;;;;;;;;;;;;;;22.55;42.97;94862.84;11245796;26;3315;-60
2024/04/08 23:15:21;;;;;;;;;;;;;;;22.54;42.77;94848.09;11240401;26;3761;-60
2024/04/08 23:20:22;;;;;;;;;;;;;;;22.53;43.12;94838.59;11238839;26;3098;-60
2024/04/08 23:25:22;;;;;;;;;;;;;;;22.53;42.75;94844.66;11240443;26;3215;-60
2024/04/08 23:30:22;;;;;;;;;;;;;;;22.53;42.65;94841.25;11236638;26;3190;-60
2024/04/08 23:35:23;;;;;;;;;;;;;;;22.53;42.83;94835.97;11235775;26;2985;-60
2024/04/08 23:40:24;;;;;;;;;;;;;;;22.53;42.61;94828.81;11236848;26;3035;-62
2024/04/08 23:45:24;;;;;;;;;;;;;;;22.51;42.78;94823.06;11242896;26;3218;-60
2024/04/08 23:50:25;;;;;;;;;;;;;;;22.52;42.55;94814.06;11230670;26;3195;-60
2024/04/08 23:55:26;;;;;;;;;;;;;;;22.51;42.68;94804.59;11258691;26;3037;-61
